Terminal Aerodrome Forecast
Issued by NWS St Louis, MO

Home | Current Version | Previous Version | Text Only | Print | Product List | Glossary On
Versions: 1 2 3 4 5 6 7 8 9 10 11 12 13 14 15 16 17 18 19 20 21 22 23 24
000
FTUS43 KLSX 280520
TAFCOU
TAF
KCOU 280520Z 2806/2906 17007KT P6SM OVC015
     FM281500 18011KT P6SM BKN050
     FM281900 18012KT P6SM VCTS BKN040CB
     FM282300 20008KT P6SM BKN120=

USA.gov is the U.S. government's official web portal to all federal, state and local government web resources and services.